Time;durP1;ratioP1;P1;durP2;ratioP2;P2;SDS_P1;SDS_P2;PMS_P1;PMS_P2;Temp;Humidity;BMP_temperature;BMP_pressure;BME280_temperature;BME280_humidity;BME280_pressure;Samples;Min_cycle;Max_cycle;Signal;HPM_P1;HPM_P2
2023/03/29 00:02:10;;;;;;;7.00;2.90;;;;;;;17.54;58.47;100631.81;5070810;28;20208;-62
2023/03/29 00:04:35;;;;;;;9.07;3.23;;;;;;;17.62;57.76;100630.81;5075428;28;20240;-61
2023/03/29 00:07:03;;;;;;;6.50;2.33;;;;;;;17.60;58.11;100628.31;5085301;28;20207;-61
2023/03/29 00:09:30;;;;;;;6.33;2.70;;;;;;;17.54;58.32;100621.22;5051501;28;20185;-62
2023/03/29 00:11:56;;;;;;;6.67;2.70;;;;;;;17.57;58.28;100634.78;5055980;28;20406;-62
2023/03/29 00:14:21;;;;;;;7.43;2.10;;;;;;;17.58;58.13;100632.75;5066593;28;20460;-62
2023/03/29 00:16:47;;;;;;;6.57;2.67;;;;;;;17.56;58.16;100635.97;5052492;28;20175;-62
2023/03/29 00:19:13;;;;;;;7.60;2.90;;;;;;;17.56;58.17;100646.56;5071103;28;20183;-61
2023/03/29 00:21:38;;;;;;;4.13;2.13;;;;;;;17.60;58.16;100641.78;5067457;28;20171;-62
2023/03/29 00:24:04;;;;;;;6.93;2.73;;;;;;;17.55;58.38;100645.72;5051171;28;20164;-62
2023/03/29 00:26:29;;;;;;;8.03;2.80;;;;;;;17.56;58.00;100641.66;5033018;28;20156;-62
2023/03/29 00:28:55;;;;;;;5.47;2.70;;;;;;;17.57;58.19;100651.06;5053289;28;20560;-62
2023/03/29 00:31:21;;;;;;;5.27;2.00;;;;;;;17.57;58.42;100660.47;5050910;28;20157;-62
2023/03/29 00:33:46;;;;;;;7.93;2.13;;;;;;;17.57;58.00;100654.78;5061901;28;20182;-63
2023/03/29 00:36:12;;;;;;;6.30;2.70;;;;;;;17.57;57.99;100639.66;5070735;28;20232;-62
2023/03/29 00:38:38;;;;;;;6.67;2.90;;;;;;;17.56;58.23;100630.25;5036003;28;20207;-62
2023/03/29 00:41:05;;;;;;;7.20;2.30;;;;;;;17.53;58.59;100635.88;5016075;28;20176;-62
2023/03/29 00:43:30;;;;;;;6.07;2.50;;;;;;;17.55;58.22;100634.31;5032639;28;20407;-62
2023/03/29 00:45:56;;;;;;;7.87;2.90;;;;;;;17.55;58.16;100633.50;5033171;28;20433;-62
2023/03/29 00:48:24;;;;;;;6.23;2.30;;;;;;;17.55;58.15;100639.19;5032672;28;20214;-61
2023/03/29 00:50:54;;;;;;;5.70;2.87;;;;;;;17.53;58.37;100645.28;5027320;28;1137021;-62
2023/03/29 00:53:32;;;;;;;9.70;2.70;;;;;;;17.53;58.15;100633.84;5053890;28;20533;-62
2023/03/29 00:56:20;;;;;;;8.10;2.50;;;;;;;17.54;58.26;100621.22;5016589;28;20453;-62
2023/03/29 00:59:09;;;;;;;5.17;2.67;;;;;;;17.53;58.27;100625.28;5015526;28;20496;-62
2023/03/29 01:01:44;;;;;;;8.27;3.10;;;;;;;17.53;58.47;100619.56;5042123;28;20480;-62
2023/03/29 01:04:36;;;;;;;7.17;2.40;;;;;;;17.52;58.49;100615.06;5045037;28;20425;-62
2023/03/29 01:07:01;;;;;;;5.67;2.90;;;;;;;17.54;57.64;100623.25;5047769;28;20527;-61
2023/03/29 01:09:29;;;;;;;5.10;2.20;;;;;;;17.51;58.20;100615.44;5070538;28;20409;-62
2023/03/29 01:11:55;;;;;;;5.83;2.17;;;;;;;17.53;58.28;100613.03;5067296;28;20175;-62
2023/03/29 01:14:28;;;;;;;11.30;2.67;;;;;;;17.48;58.71;100610.44;5051957;28;21063;-62
2023/03/29 01:16:54;;;;;;;4.83;2.17;;;;;;;17.48;58.15;100628.41;5042239;28;20438;-63
2023/03/29 01:19:21;;;;;;;5.90;1.90;;;;;;;17.51;58.26;100627.66;5024223;28;20445;-61
2023/03/29 01:22:09;;;;;;;5.83;2.33;;;;;;;17.54;58.22;100626.09;5048439;28;20245;-61
2023/03/29 01:24:56;;;;;;;4.07;1.73;;;;;;;17.51;58.28;100621.16;5055384;28;20438;-61
2023/03/29 01:27:39;;;;;;;7.63;2.30;;;;;;;17.58;58.13;100616.44;5068086;28;20457;-63
2023/03/29 01:30:09;;;;;;;7.07;2.60;;;;;;;17.52;58.07;100597.94;5050701;28;20417;-61
2023/03/29 01:32:41;;;;;;;4.50;2.40;;;;;;;17.48;58.07;100579.03;5032972;28;20414;-61
2023/03/29 01:35:13;;;;;;;6.30;2.43;;;;;;;17.46;58.39;100579.41;5035347;28;20438;-61
2023/03/29 01:38:13;;;;;;;4.90;2.10;;;;;;;17.54;58.29;100574.72;5016281;28;20521;-61
2023/03/29 01:40:38;;;;;;;5.00;2.40;;;;;;;17.54;58.25;100574.72;5031138;28;20449;-62
2023/03/29 01:43:27;;;;;;;5.23;2.17;;;;;;;17.52;58.33;100563.69;5052441;28;21081;-62
2023/03/29 01:46:07;;;;;;;8.10;2.40;;;;;;;17.51;58.25;100544.06;5034624;28;20670;-62
2023/03/29 01:48:41;;;;;;;5.37;3.10;;;;;;;17.50;58.33;100540.38;5037034;28;20459;-61
2023/03/29 01:51:09;;;;;;;5.50;2.00;;;;;;;17.48;58.16;100537.06;5035260;28;20494;-61
2023/03/29 01:53:52;;;;;;;6.37;2.60;;;;;;;17.50;58.27;100523.25;5040205;28;20429;-62
2023/03/29 01:56:20;;;;;;;6.67;2.23;;;;;;;17.52;58.21;100522.88;5051171;28;20819;-61
2023/03/29 01:58:48;;;;;;;8.57;2.90;;;;;;;17.53;58.40;100516.81;5050488;28;20464;-62
2023/03/29 02:01:16;;;;;;;4.33;2.20;;;;;;;17.52;57.95;100502.91;5034025;28;20496;-62
2023/03/29 02:03:45;;;;;;;7.57;2.23;;;;;;;17.52;58.39;100520.88;5052160;28;20417;-62
2023/03/29 02:06:11;;;;;;;7.03;2.30;;;;;;;17.52;58.35;100506.59;5050425;28;20967;-61
2023/03/29 02:08:38;;;;;;;8.00;2.50;;;;;;;17.50;58.43;100506.13;5021100;28;20433;-62
2023/03/29 02:11:04;;;;;;;4.10;2.13;;;;;;;17.50;58.55;100522.44;5034246;28;20244;-61
2023/03/29 02:13:29;;;;;;;5.37;2.53;;;;;;;17.53;58.14;100519.66;5041192;28;20984;-62
2023/03/29 02:15:55;;;;;;;6.27;2.40;;;;;;;17.52;58.35;100520.88;5065222;28;20179;-62
2023/03/29 02:18:20;;;;;;;5.30;2.00;;;;;;;17.51;58.68;100513.47;5032282;28;20191;-60
2023/03/29 02:20:47;;;;;;;5.80;2.33;;;;;;;17.50;58.46;100499.59;5048946;28;20179;-62
2023/03/29 02:23:16;;;;;;;5.67;2.40;;;;;;;17.50;58.62;100488.19;5048248;28;20519;-61
2023/03/29 02:25:42;;;;;;;6.60;2.50;;;;;;;17.50;58.59;100485.34;5051928;28;20418;-62
2023/03/29 02:28:07;;;;;;;4.80;1.80;;;;;;;17.48;58.31;100477.13;5030055;28;20459;-62
2023/03/29 02:30:40;;;;;;;3.17;1.73;;;;;;;17.49;58.49;100472.22;5031911;28;20510;-61
2023/03/29 02:33:12;;;;;;;5.73;2.00;;;;;;;17.50;58.72;100485.34;5034596;28;20211;-62
2023/03/29 02:35:44;;;;;;;6.60;2.53;;;;;;;17.48;58.64;100485.69;5049923;28;20414;-62
2023/03/29 02:38:10;;;;;;;5.57;2.30;;;;;;;17.48;58.35;100485.69;5017069;28;20667;-61
2023/03/29 02:40:36;;;;;;;5.20;2.17;;;;;;;17.49;58.31;100480.78;5055941;28;20901;-61
2023/03/29 02:43:01;;;;;;;5.80;2.13;;;;;;;17.50;58.15;100482.47;5035976;28;20917;-62
2023/03/29 02:45:27;;;;;;;4.20;1.90;;;;;;;17.47;58.65;100486.06;5037760;28;20434;-62
2023/03/29 02:47:54;;;;;;;5.70;2.40;;;;;;;17.45;58.71;100485.63;5035642;28;20176;-62
2023/03/29 02:50:20;;;;;;;3.60;1.97;;;;;;;17.43;58.57;100482.28;5042104;28;20252;-61
2023/03/29 02:52:52;;;;;;;4.27;2.27;;;;;;;17.44;58.72;100487.63;5035148;28;20465;-63
2023/03/29 02:55:17;;;;;;;5.73;2.17;;;;;;;17.50;58.58;100486.16;5072588;28;20179;-61
2023/03/29 02:57:42;;;;;;;4.53;2.30;;;;;;;17.50;58.04;100491.84;5038781;28;20444;-61
2023/03/29 03:00:09;;;;;;;4.40;2.00;;;;;;;17.46;58.63;100487.25;5069840;28;20179;-61
2023/03/29 03:02:36;;;;;;;3.90;1.87;;;;;;;17.52;58.38;100486.63;5073868;28;20175;-62
2023/03/29 03:05:02;;;;;;;4.90;2.07;;;;;;;17.52;58.12;100489.47;5068108;28;20504;-62
2023/03/29 03:07:28;;;;;;;4.83;2.50;;;;;;;17.47;58.39;100492.59;5053053;28;20450;-61
2023/03/29 03:09:54;;;;;;;5.50;2.00;;;;;;;17.52;58.21;100492.34;5052969;28;20399;-61
2023/03/29 03:12:19;;;;;;;5.70;2.13;;;;;;;17.46;58.73;100495.81;5055482;28;20207;-62
2023/03/29 03:14:45;;;;;;;5.13;1.73;;;;;;;17.50;57.92;100494.72;5070403;28;20205;-62
2023/03/29 03:17:10;;;;;;;10.73;2.50;;;;;;;17.49;58.00;100490.19;5066085;28;20200;-62
2023/03/29 03:19:36;;;;;;;5.10;1.87;;;;;;;17.47;58.16;100486.06;5055380;28;21091;-62
2023/03/29 03:22:01;;;;;;;4.20;1.80;;;;;;;17.48;58.20;100490.56;5018806;28;20176;-61
2023/03/29 03:24:27;;;;;;;5.07;2.10;;;;;;;17.49;58.05;100497.91;5036674;28;20191;-62
2023/03/29 03:26:53;;;;;;;4.00;2.10;;;;;;;17.49;58.01;100487.34;5054254;28;20194;-61
2023/03/29 03:29:18;;;;;;;5.13;2.03;;;;;;;17.50;58.25;100493.91;5052794;28;20179;-62
2023/03/29 03:31:44;;;;;;;5.20;2.20;;;;;;;17.48;58.25;100497.13;5052854;28;20418;-62
2023/03/29 03:34:10;;;;;;;4.70;2.10;;;;;;;17.48;58.45;100497.13;5055362;28;20179;-61
2023/03/29 03:36:35;;;;;;;4.63;2.30;;;;;;;17.47;58.42;100484.03;5052722;28;20187;-62
2023/03/29 03:39:02;;;;;;;5.43;2.10;;;;;;;17.47;58.56;100489.75;5052819;28;20203;-61
2023/03/29 03:41:28;;;;;;;3.80;2.13;;;;;;;17.48;57.97;100491.41;5055156;28;20180;-62
2023/03/29 03:43:53;;;;;;;5.40;1.97;;;;;;;17.50;58.29;100493.91;5052849;28;20775;-62
2023/03/29 03:46:19;;;;;;;3.73;1.60;;;;;;;17.46;58.38;100490.94;5052766;28;20176;-62
2023/03/29 03:48:45;;;;;;;3.60;2.10;;;;;;;17.46;58.75;100493.78;5053759;28;20561;-62
2023/03/29 03:51:11;;;;;;;5.17;2.37;;;;;;;17.47;58.59;100506.88;5053022;28;20188;-61
2023/03/29 03:53:36;;;;;;;3.73;2.23;;;;;;;17.47;58.25;100491.75;5066076;28;20482;-61
2023/03/29 03:56:07;;;;;;;4.20;1.80;;;;;;;17.44;58.44;100504.75;5068709;28;20182;-62
2023/03/29 03:58:36;;;;;;;4.53;1.97;;;;;;;17.47;58.31;100497.47;5072492;28;20191;-62
2023/03/29 04:01:01;;;;;;;5.23;2.37;;;;;;;17.48;58.59;100502.81;5050601;28;20434;-61
2023/03/29 04:03:27;;;;;;;5.13;1.90;;;;;;;17.45;58.26;100512.09;5072029;28;20512;-62
2023/03/29 04:05:52;;;;;;;3.13;1.57;;;;;;;17.46;58.66;100499.50;5087289;28;20197;-62
2023/03/29 04:08:18;;;;;;;5.00;1.90;;;;;;;17.46;58.19;100502.34;5071300;28;20175;-61
2023/03/29 04:10:50;;;;;;;3.60;1.73;;;;;;;17.46;58.06;100510.09;5060400;28;20180;-62
2023/03/29 04:13:16;;;;;;;6.20;1.90;;;;;;;17.45;58.28;100502.75;5058620;28;20188;-62
2023/03/29 04:15:42;;;;;;;3.87;1.90;;;;;;;17.44;58.28;100513.31;5067083;28;20420;-63
2023/03/29 04:18:07;;;;;;;5.33;1.83;;;;;;;17.42;58.22;100514.88;5060994;28;20207;-62
2023/03/29 04:20:33;;;;;;;3.43;2.00;;;;;;;17.43;58.25;100505.94;5066578;28;20176;-62
2023/03/29 04:22:58;;;;;;;4.67;2.17;;;;;;;17.40;58.45;100518.09;5026569;28;20186;-62
2023/03/29 04:25:24;;;;;;;2.90;1.77;;;;;;;17.38;58.53;100514.75;5061922;28;20226;-62
2023/03/29 04:27:49;;;;;;;5.70;2.60;;;;;;;17.43;58.61;100516.53;5051498;28;20294;-62
2023/03/29 04:30:15;;;;;;;3.63;1.77;;;;;;;17.47;58.62;100512.59;5054125;28;20670;-62
2023/03/29 04:32:41;;;;;;;5.00;2.00;;;;;;;17.70;58.67;100515.63;5045292;28;20296;-60
2023/03/29 04:35:07;;;;;;;6.67;3.13;;;;;;;17.75;58.89;100521.03;5044913;28;20872;-61
2023/03/29 04:37:33;;;;;;;6.20;4.00;;;;;;;17.88;57.37;100514.84;5038458;28;20207;-61
2023/03/29 04:40:01;;;;;;;8.43;4.10;;;;;;;18.13;56.29;100519.13;5052943;28;20519;-61
2023/03/29 04:42:26;;;;;;;9.13;3.60;;;;;;;18.03;54.90;100513.97;5031650;28;20186;-61
2023/03/29 04:44:53;;;;;;;5.50;3.43;;;;;;;18.01;54.79;100524.94;5060491;28;20780;-60
2023/03/29 04:47:20;;;;;;;6.93;3.33;;;;;;;17.96;55.37;100513.78;5051820;28;20692;-61
2023/03/29 04:49:45;;;;;;;6.30;3.17;;;;;;;17.95;55.39;100511.31;5069133;28;20433;-62
2023/03/29 04:52:10;;;;;;;8.93;3.30;;;;;;;17.94;55.46;100513.34;5042062;28;20479;-61
2023/03/29 04:54:36;;;;;;;6.13;2.77;;;;;;;17.97;55.48;100504.00;5030749;28;20650;-61
2023/03/29 04:57:05;;;;;;;4.80;2.80;;;;;;;18.01;54.84;100510.66;5027962;28;20651;-61
2023/03/29 04:59:31;;;;;;;6.00;2.53;;;;;;;17.96;55.59;100501.56;5037796;28;20184;-61
2023/03/29 05:01:57;;;;;;;4.73;2.50;;;;;;;17.91;55.50;100514.06;5043005;28;20442;-61
2023/03/29 05:04:23;;;;;;;6.00;2.33;;;;;;;17.89;55.80;100496.50;5039843;28;20181;-61
2023/03/29 05:06:49;;;;;;;5.53;2.57;;;;;;;17.95;55.71;100499.88;5069343;28;20433;-61
2023/03/29 05:09:14;;;;;;;9.00;3.10;;;;;;;17.91;55.61;100501.84;5057658;28;20416;-61
2023/03/29 05:11:40;;;;;;;8.80;3.80;;;;;;;17.97;56.38;100497.50;5042937;28;20186;-63
2023/03/29 05:14:07;;;;;;;7.50;3.00;;;;;;;18.06;55.67;100500.97;5038271;28;20187;-61
2023/03/29 05:16:33;;;;;;;6.63;2.70;;;;;;;18.10;55.94;100494.13;5031977;28;20589;-62
2023/03/29 05:18:59;;;;;;;6.33;2.67;;;;;;;18.10;55.71;100496.16;5032471;28;20509;-62
2023/03/29 05:21:25;;;;;;;5.23;2.80;;;;;;;18.16;56.02;100501.19;5030030;28;20632;-62
2023/03/29 05:23:52;;;;;;;6.30;3.07;;;;;;;18.08;56.18;100510.00;5027991;28;20731;-61
2023/03/29 05:26:17;;;;;;;4.90;2.80;;;;;;;17.92;56.48;100518.63;5040051;28;20454;-61
2023/03/29 05:28:42;;;;;;;6.17;2.77;;;;;;;17.87;55.97;100510.34;5033144;28;20434;-61
2023/03/29 05:31:08;;;;;;;4.83;2.80;;;;;;;17.80;55.33;100501.56;5029068;28;20188;-62
2023/03/29 05:33:35;;;;;;;6.57;3.10;;;;;;;17.80;54.77;100498.72;5028667;28;20180;-61
2023/03/29 05:36:07;;;;;;;6.43;2.67;;;;;;;17.77;54.33;100502.34;5012231;28;20435;-62
2023/03/29 05:38:33;;;;;;;6.43;2.57;;;;;;;17.78;54.08;100495.41;5031388;28;20473;-62
2023/03/29 05:40:59;;;;;;;5.77;2.90;;;;;;;17.78;54.42;100506.84;5028408;28;20757;-62
2023/03/29 05:43:24;;;;;;;5.20;2.30;;;;;;;17.78;54.42;100511.72;5043344;28;20257;-61
2023/03/29 05:45:53;;;;;;;8.00;2.80;;;;;;;17.77;53.95;100501.50;5040881;28;20459;-61
2023/03/29 05:48:21;;;;;;;7.27;3.00;;;;;;;17.72;54.70;100502.63;5030073;28;20171;-61
2023/03/29 05:50:47;;;;;;;8.20;2.77;;;;;;;17.74;54.88;100505.91;5032782;28;20434;-61
2023/03/29 05:53:13;;;;;;;7.17;2.40;;;;;;;17.74;54.85;100508.78;5050914;28;20475;-62
2023/03/29 05:55:40;;;;;;;6.67;2.83;;;;;;;17.72;54.72;100519.75;5049529;28;21723;-61
2023/03/29 05:58:05;;;;;;;6.53;2.83;;;;;;;17.76;54.68;100511.28;5035950;28;20473;-61
2023/03/29 06:00:33;;;;;;;4.97;2.80;;;;;;;17.74;54.75;100505.91;5047603;28;20403;-61
2023/03/29 06:02:58;;;;;;;8.67;2.67;;;;;;;17.77;55.21;100515.78;5063277;28;20186;-62
2023/03/29 06:05:24;;;;;;;5.40;2.47;;;;;;;17.76;55.31;100509.22;5049679;28;20417;-61
2023/03/29 06:07:50;;;;;;;4.93;2.57;;;;;;;17.76;55.37;100511.28;5067900;28;20196;-62
2023/03/29 06:10:16;;;;;;;5.10;2.23;;;;;;;17.78;55.27;100511.72;5034945;28;20901;-61
2023/03/29 06:12:42;;;;;;;6.50;2.60;;;;;;;17.81;54.97;100505.28;5048286;28;20413;-62
2023/03/29 06:15:09;;;;;;;4.63;2.73;;;;;;;17.82;55.36;100502.06;5057022;28;20440;-62
2023/03/29 06:17:34;;;;;;;6.77;2.87;;;;;;;17.78;55.41;100504.00;5054235;28;20206;-61
2023/03/29 06:20:00;;;;;;;7.10;2.80;;;;;;;17.81;56.03;100508.94;5073087;28;20457;-62
2023/03/29 06:22:26;;;;;;;3.97;2.30;;;;;;;17.80;55.66;100503.63;5071714;28;20167;-61
2023/03/29 06:24:52;;;;;;;6.00;2.87;;;;;;;17.77;55.80;100501.50;5043592;28;20198;-62
2023/03/29 06:27:18;;;;;;;6.13;2.23;;;;;;;17.83;55.86;100503.69;5053717;28;20410;-62
2023/03/29 06:29:44;;;;;;;3.50;2.10;;;;;;;17.81;55.61;100503.22;5072755;28;20939;-61
2023/03/29 06:32:10;;;;;;;4.30;2.40;;;;;;;17.81;56.13;100506.09;5053940;28;20952;-62
2023/03/29 06:34:36;;;;;;;6.20;2.43;;;;;;;17.72;56.13;100502.63;5069552;28;20437;-62
2023/03/29 06:37:02;;;;;;;13.07;2.70;;;;;;;17.74;56.21;100507.94;5072002;28;20406;-62
2023/03/29 06:39:28;;;;;;;8.47;2.90;;;;;;;17.72;56.14;100514.03;5062891;28;20278;-62
2023/03/29 06:41:54;;;;;;;6.80;2.40;;;;;;;17.72;56.17;100522.59;5034453;28;20399;-61
2023/03/29 06:44:19;;;;;;;6.67;2.80;;;;;;;17.69;56.55;100520.47;5052229;28;20527;-61
2023/03/29 06:46:45;;;;;;;3.87;2.20;;;;;;;17.70;56.45;100516.41;5048386;28;20594;-62
2023/03/29 06:49:10;;;;;;;6.00;2.83;;;;;;;17.67;56.93;100522.88;5055937;28;20267;-63
2023/03/29 06:51:36;;;;;;;4.20;2.10;;;;;;;17.66;56.92;100520.41;5071954;28;20280;-62
2023/03/29 06:54:03;;;;;;;5.17;2.50;;;;;;;17.66;56.81;100529.78;5049053;28;20196;-62
2023/03/29 06:56:28;;;;;;;5.70;2.10;;;;;;;17.66;56.67;100528.97;5070696;28;20167;-62
2023/03/29 06:58:54;;;;;;;5.90;2.87;;;;;;;17.67;56.65;100527.75;5052613;28;20448;-62
2023/03/29 07:01:20;;;;;;;5.53;2.07;;;;;;;17.66;56.87;100532.63;5036285;28;20542;-61
2023/03/29 07:03:46;;;;;;;5.50;2.73;;;;;;;17.66;56.94;100537.53;5066366;28;20198;-62
2023/03/29 07:06:13;;;;;;;7.13;2.60;;;;;;;17.64;56.97;100525.63;5079665;28;20190;-62
2023/03/29 07:08:42;;;;;;;5.33;2.50;;;;;;;17.64;57.34;100529.31;5066753;28;20184;-62
2023/03/29 07:11:11;;;;;;;4.07;2.00;;;;;;;17.67;57.13;100542.03;5071474;28;20416;-62
2023/03/29 07:13:38;;;;;;;5.60;2.50;;;;;;;17.69;57.22;100531.91;5053844;28;20467;-62
2023/03/29 07:16:05;;;;;;;5.33;2.60;;;;;;;17.69;57.04;100536.78;5044460;28;20442;-62
2023/03/29 07:18:30;;;;;;;4.90;2.37;;;;;;;17.67;57.29;100534.31;5051533;28;20446;-62
2023/03/29 07:20:56;;;;;;;7.50;2.47;;;;;;;17.67;57.32;100528.59;5064183;28;21229;-61
2023/03/29 07:23:22;;;;;;;4.93;2.57;;;;;;;17.66;57.16;100526.09;5051475;28;20179;-62
2023/03/29 07:25:47;;;;;;;4.90;2.33;;;;;;;17.65;57.19;100536.69;5051062;28;20241;-61
2023/03/29 07:28:13;;;;;;;6.53;2.80;;;;;;;17.68;57.25;100537.97;5044653;28;20191;-62
2023/03/29 07:30:38;;;;;;;5.40;2.27;;;;;;;17.66;56.98;100546.09;5056641;28;20630;-61
2023/03/29 07:33:04;;;;;;;4.30;2.43;;;;;;;17.66;57.30;100532.63;5071041;28;20167;-61
2023/03/29 07:35:29;;;;;;;3.30;2.00;;;;;;;17.63;57.49;100530.53;5036121;28;20189;-61
2023/03/29 07:37:55;;;;;;;4.83;2.17;;;;;;;17.64;57.13;100537.06;5047709;28;20671;-62
2023/03/29 07:40:22;;;;;;;4.27;2.30;;;;;;;17.67;57.29;100540.03;5052263;28;20179;-61
2023/03/29 07:42:51;;;;;;;5.23;2.53;;;;;;;17.69;57.76;100553.91;5054973;28;20210;-61
2023/03/29 07:45:19;;;;;;;5.83;2.20;;;;;;;17.68;57.26;100566.53;5052163;28;20479;-62
2023/03/29 07:47:46;;;;;;;4.67;2.47;;;;;;;17.69;57.36;100560.47;5036575;28;20488;-61
2023/03/29 07:50:12;;;;;;;4.53;2.40;;;;;;;17.64;57.51;100568.47;5046685;28;20512;-61
2023/03/29 07:52:38;;;;;;;5.70;2.20;;;;;;;17.70;57.38;100556.41;5053983;28;20461;-63
2023/03/29 07:55:07;;;;;;;4.37;1.97;;;;;;;17.74;57.16;100557.31;5068433;28;20847;-62
2023/03/29 07:57:33;;;;;;;5.50;2.30;;;;;;;17.80;56.86;100544.41;5054056;28;20449;-62
2023/03/29 07:59:58;;;;;;;4.03;2.20;;;;;;;17.84;56.88;100545.34;5069458;28;20788;-61
2023/03/29 08:02:23;;;;;;;4.83;1.93;;;;;;;17.83;56.66;100543.69;5070543;28;20178;-62
2023/03/29 08:04:49;;;;;;;6.00;2.60;;;;;;;17.79;57.53;100541.91;5053528;28;20171;-62
2023/03/29 08:07:17;;;;;;;4.50;1.90;;;;;;;17.76;57.33;100540.63;5050411;28;20268;-61
2023/03/29 08:09:43;;;;;;;5.93;2.50;;;;;;;17.74;56.98;100545.06;5071450;28;20175;-61
2023/03/29 08:12:09;;;;;;;4.53;2.23;;;;;;;17.72;57.27;100551.16;5072166;28;20404;-62
2023/03/29 08:14:35;;;;;;;4.37;2.07;;;;;;;17.73;57.10;100538.53;5070202;28;20428;-62
2023/03/29 08:17:01;;;;;;;4.20;2.17;;;;;;;17.71;57.43;100535.19;5068937;28;20583;-61
2023/03/29 08:19:26;;;;;;;3.80;2.40;;;;;;;17.74;57.65;100531.63;5071554;28;20444;-61
2023/03/29 08:21:52;;;;;;;4.07;2.10;;;;;;;17.73;57.57;100535.69;5071107;28;20175;-62
2023/03/29 08:24:18;;;;;;;6.93;2.53;;;;;;;17.68;57.51;100526.56;5068604;28;20650;-62
2023/03/29 08:26:43;;;;;;;3.80;2.37;;;;;;;17.72;57.63;100531.19;5051577;28;20421;-61
2023/03/29 08:29:09;;;;;;;3.97;2.00;;;;;;;17.74;57.61;100527.94;5051545;28;20160;-62
2023/03/29 08:31:34;;;;;;;3.40;1.90;;;;;;;17.74;57.36;100528.75;5068723;28;20183;-62
2023/03/29 08:34:00;;;;;;;3.90;1.70;;;;;;;17.73;57.46;100529.97;5052722;28;20183;-61
2023/03/29 08:36:26;;;;;;;3.50;2.00;;;;;;;17.72;57.67;100530.34;5053136;28;20191;-61
2023/03/29 08:38:52;;;;;;;5.53;2.20;;;;;;;17.72;57.73;100531.19;5068221;28;20473;-61
2023/03/29 08:41:48;;;;;;;4.23;1.97;;;;;;;17.75;57.71;100535.31;5051376;28;20191;-61
2023/03/29 08:44:35;;;;;;;3.40;1.97;;;;;;;17.72;57.40;100525.47;5019521;28;20180;-61
2023/03/29 08:47:27;;;;;;;3.83;2.30;;;;;;;17.74;57.57;100525.06;5035521;28;20453;-61
2023/03/29 08:49:54;;;;;;;3.70;2.00;;;;;;;17.72;57.50;100519.75;5031841;28;20504;-62
2023/03/29 08:52:53;;;;;;;3.73;2.17;;;;;;;17.72;57.89;100516.06;5049588;28;20470;-62
2023/03/29 08:55:41;;;;;;;4.13;2.20;;;;;;;17.70;57.76;100512.75;5015179;28;20454;-61
2023/03/29 08:58:11;;;;;;;3.97;2.13;;;;;;;17.73;57.26;100507.13;5031753;28;20446;-61
2023/03/29 09:00:45;;;;;;;4.00;1.73;;;;;;;17.73;57.94;100503.44;5025409;28;20429;-61
2023/03/29 09:03:18;;;;;;;3.40;1.70;;;;;;;17.71;57.61;100503.78;5037585;28;20967;-62
2023/03/29 09:05:46;;;;;;;4.00;2.10;;;;;;;17.74;57.62;100494.50;5066633;28;20521;-62
2023/03/29 09:08:12;;;;;;;3.27;1.70;;;;;;;17.72;58.07;100496.06;5072708;28;20413;-62
2023/03/29 09:11:03;;;;;;;3.53;1.90;;;;;;;17.72;57.58;100502.63;5042056;28;20560;-62
2023/03/29 09:13:41;;;;;;;3.10;1.80;;;;;;;17.71;57.69;100503.78;5052288;28;20464;-61
2023/03/29 09:16:10;;;;;;;6.53;2.37;;;;;;;17.73;57.50;100498.56;5055898;28;20476;-61
2023/03/29 09:18:55;;;;;;;3.47;1.90;;;;;;;17.73;57.48;100501.41;5050359;28;20454;-62
2023/03/29 09:21:45;;;;;;;4.20;1.97;;;;;;;17.71;58.01;100500.94;5052408;28;20438;-63
2023/03/29 09:24:24;;;;;;;6.83;2.10;;;;;;;17.69;57.65;100489.06;5050428;28;20410;-62
2023/03/29 09:26:55;;;;;;;2.83;1.60;;;;;;;17.70;57.82;100492.78;5050518;28;20410;-61
2023/03/29 09:29:23;;;;;;;3.07;1.90;;;;;;;17.75;57.84;100496.16;5033014;28;20527;-62
2023/03/29 09:31:48;;;;;;;3.80;2.00;;;;;;;17.73;57.52;100498.56;5046813;28;20434;-62
2023/03/29 09:34:21;;;;;;;4.27;2.03;;;;;;;17.63;58.08;100506.84;5030883;28;20437;-61
2023/03/29 09:36:52;;;;;;;3.37;2.20;;;;;;;17.77;57.73;100508.06;5051554;28;20282;-62
2023/03/29 09:39:19;;;;;;;5.40;1.97;;;;;;;17.75;57.85;100501.06;5048852;28;20519;-62
2023/03/29 09:41:52;;;;;;;3.07;2.13;;;;;;;17.85;57.32;100495.59;5051417;28;20464;-61
2023/03/29 09:44:20;;;;;;;3.43;1.70;;;;;;;17.82;57.51;100499.19;5049145;28;20410;-61
2023/03/29 09:46:57;;;;;;;3.10;1.87;;;;;;;17.85;57.35;100498.44;5030744;28;20425;-62
2023/03/29 09:49:26;;;;;;;3.30;2.00;;;;;;;17.80;57.24;100495.06;5020117;28;20441;-61
2023/03/29 09:51:51;;;;;;;3.50;1.80;;;;;;;17.75;58.16;100501.06;5031906;28;20462;-61
2023/03/29 09:54:17;;;;;;;3.70;2.10;;;;;;;17.73;57.94;100492.00;5041436;28;20928;-61
2023/03/29 09:56:42;;;;;;;3.83;1.70;;;;;;;17.71;57.73;100498.09;5051661;28;20550;-61
2023/03/29 09:59:11;;;;;;;3.73;1.97;;;;;;;17.73;57.98;100497.72;5068699;28;20540;-62
2023/03/29 10:01:38;;;;;;;6.13;2.40;;;;;;;17.73;57.92;100494.88;5043653;28;20209;-61
2023/03/29 10:04:05;;;;;;;3.20;1.80;;;;;;;17.70;57.73;100492.78;5069879;28;20482;-62
2023/03/29 10:06:30;;;;;;;3.00;1.80;;;;;;;17.70;58.10;100484.19;5070451;28;20449;-61
2023/03/29 10:08:57;;;;;;;5.70;2.37;;;;;;;17.73;57.77;100478.56;5049050;28;20449;-61
2023/03/29 10:11:35;;;;;;;4.60;1.60;;;;;;;17.74;57.76;100479.38;5069424;28;20701;-61
2023/03/29 10:14:04;;;;;;;4.27;2.03;;;;;;;17.75;57.85;100466.78;5051462;28;20417;-62
2023/03/29 10:16:34;;;;;;;3.30;1.80;;;;;;;17.75;57.75;100461.06;5037930;28;20441;-61
2023/03/29 10:19:19;;;;;;;4.07;1.83;;;;;;;17.72;58.00;100459.78;5069488;28;20510;-61
2023/03/29 10:21:51;;;;;;;4.27;2.03;;;;;;;17.74;57.87;100459.41;5052094;28;20436;-61
2023/03/29 10:24:21;;;;;;;3.17;1.97;;;;;;;17.75;58.09;100456.16;5063640;28;20980;-62
2023/03/29 10:26:46;;;;;;;2.60;1.60;;;;;;;17.76;57.73;100457.00;5031656;28;20495;-61
2023/03/29 10:29:12;;;;;;;3.30;2.00;;;;;;;17.73;58.27;100457.75;5050201;28;20474;-62
2023/03/29 10:31:40;;;;;;;4.37;1.63;;;;;;;17.73;57.94;100457.75;5047126;28;20190;-62
2023/03/29 10:34:06;;;;;;;4.67;1.90;;;;;;;17.73;57.73;100454.88;5068969;28;20169;-61
2023/03/29 10:36:31;;;;;;;3.70;2.00;;;;;;;17.74;57.49;100460.25;5041144;28;20438;-61
2023/03/29 10:38:58;;;;;;;3.90;1.60;;;;;;;17.71;58.18;100458.13;5014184;28;20198;-61
2023/03/29 10:41:23;;;;;;;3.50;1.93;;;;;;;17.72;58.20;100451.22;5065656;28;20840;-61
2023/03/29 10:43:49;;;;;;;3.63;1.80;;;;;;;17.73;58.28;100452.88;5032038;28;20430;-61
2023/03/29 10:46:26;;;;;;;4.33;2.33;;;;;;;17.71;57.94;100452.41;5014211;28;20191;-62
2023/03/29 10:48:56;;;;;;;4.00;1.97;;;;;;;17.71;58.29;100445.88;5050032;28;20505;-62
2023/03/29 10:51:22;;;;;;;4.20;2.20;;;;;;;17.75;57.96;100439.03;5062342;28;20486;-62
2023/03/29 10:53:48;;;;;;;4.10;2.10;;;;;;;17.72;57.76;100434.09;5049516;28;20449;-61
2023/03/29 10:56:40;;;;;;;4.83;2.20;;;;;;;17.74;57.91;100436.56;5031550;28;20402;-61
2023/03/29 10:59:13;;;;;;;5.57;1.93;;;;;;;17.72;58.13;100430.41;5047984;28;20587;-62
2023/03/29 11:01:56;;;;;;;7.97;2.90;;;;;;;17.73;57.78;100432.88;5035085;28;20414;-60
2023/03/29 11:04:58;;;;;;;7.30;2.20;;;;;;;17.73;58.14;100441.44;5059170;28;20429;-62
2023/03/29 11:07:40;;;;;;;4.03;1.70;;;;;;;17.71;58.27;100448.72;5028636;28;20543;-62
2023/03/29 11:10:31;;;;;;;3.53;1.77;;;;;;;17.70;58.10;100447.91;5055494;28;20554;-61
2023/03/29 11:13:09;;;;;;;4.43;1.50;;;;;;;17.70;57.94;100447.91;5051418;28;20481;-61
2023/03/29 11:15:50;;;;;;;3.37;2.10;;;;;;;17.73;57.97;100447.16;5037274;28;20940;-61
2023/03/29 11:18:46;;;;;;;5.13;1.90;;;;;;;17.68;58.09;100452.31;5061293;28;20469;-62
2023/03/29 11:21:20;;;;;;;4.37;1.60;;;;;;;17.69;58.32;100446.25;5054855;28;20446;-61
2023/03/29 11:23:52;;;;;;;3.93;1.67;;;;;;;17.71;58.13;100443.84;5066862;28;20958;-62
2023/03/29 11:26:25;;;;;;;5.43;2.47;;;;;;;17.75;57.69;100453.31;5071137;28;20417;-62
2023/03/29 11:29:01;;;;;;;6.20;1.90;;;;;;;17.78;57.98;100446.03;5049851;28;20444;-62
2023/03/29 11:31:51;;;;;;;3.57;1.83;;;;;;;17.75;57.99;100444.75;5054680;28;20456;-62
2023/03/29 11:34:20;;;;;;;3.47;1.87;;;;;;;17.79;57.82;100448.53;5052251;28;20505;-60